Ride Results

Gippsland Championship @ Rosedale (14-08-2010)
Ride distance: 120.0 km Elevator

Outcomes - Gippsland Championship @ Rosedale (14-08-2010)
Division No. of Entries Retired / DNE Completed Withdrawn Ineligible V/O Percentage Completed
HW 7 5 1 1 - - 85.71%
MW 21 12 4 - - 5 76.19%
LW 6 2 3 - - 1 83.33%
JN 5 2 3 - - - 100.00%
Totals 39 21 11 1 - 6 82.05%
Results - Gippsland Championship @ Rosedale (14-08-2010)
No. Rider Horse Place Time Leg Speeds Total
Km/Hr
H/R bpm
Heavyweight
782 Dennis Moore Boss 1 (BC) 10:53:00 12.6, 11.8, 9.1 11.03 28, 51, 56, 45 (Avg:50)
783 Frank Cullen Madison Can Retired/DNE L2 6:24:00 12.4, 12.4 12.50 32, 36, 58 (Avg:47)
187 Joanne Rees DJ Retired/DNE L2 6:34:00 19.5, 8.8 12.18 35, 47, 54 (Avg:50)
785 Dom Falcomer Private Lady Retired/DNE L2 6:48:00 12.3, 11.2 11.76 48, 50, 59 (Avg:54)
784 Allison Whitney Meshel Retired/DNE L2 6:48:00 12.3, 11.2 11.76 30, 38, 44 (Avg:41)
4 Jennifer Green Cameo Goldfinger Retired/DNE L2 8:38:00 10.5, 8.2 9.27 32, 48, 50 (Avg:49)
167 Bill Verspaandonk Tonki Dee Boo Frankly Withdrawn L1 0:00:00 - - 36, 50 (Avg:50)
Middleweight
212 Tracy John Aloha Red Domino 1 (BC) 6:44:00 20.6, 17.7, 15.6 17.82 34, 45, 46, 44 (Avg:45)
787 Shelley Cowan Castlebar Doolittle 2 7:43:00 16.5, 15.1, 14.9 15.55 28, 48, 40, 50 (Avg:46)
786 Mark Peel Moonshine Ally 3 8:12:00 14.6, 14.8, 14.4 14.63 30, 41, 54, 50 (Avg:48)
209 Kerrin Turney Kismet 4 10:09:00 12.7, 11.8, 11.0 11.82 34, 46, 52, 57 (Avg:51)
172 Michael Cadman A'landell Kwaint Retired/DNE L2 5:10:00 15.9, 14.9 15.48 33, 42, 46 (Avg:44)
42 Hans Peuker Marybank Celia Retired/DNE L2 5:36:00 14.7, 13.8 14.29 28, 42, 42 (Avg:42)
360 Kylie Hutcheon Go Get Em Jack Retired/DNE L2 5:37:00 18.6, 11.5 14.24 35, 52, 59 (Avg:55)
8 Jane McLaughlin Syrahbia Retired/DNE L2 6:15:00 13.8, 11.8 12.80 29, 45, 42 (Avg:43)
13 Linda Tanian Christmas Angel Retired/DNE L2 6:17:00 12.9, 12.4 12.73 34, 52, 50 (Avg:51)
84 Kristie Taprell Castlebar Optic Retired/DNE L2 6:17:00 12.9, 12.4 12.73 38, 48, 54 (Avg:51)
126 Wendy Riha Castlebar Darthvader Retired/DNE L2 6:26:00 11.9, 12.9 12.44 32, 50, 51 (Avg:50)
17 Sallyann Duke Summerzar Nemesis Retired/DNE L2 6:31:00 12.6, 11.9 12.28 36, 46, 55 (Avg:50)
790 Amanda Kettlewell Al Marah Heyho Silver Retired/DNE L2 6:53:00 12.1, 11.1 11.62 35, 44, 51 (Avg:47)
81 Tarryn Marshall Dara Park Alikhan Retired/DNE L2 6:54:00 11.9, 11.2 11.59 42, 43, 48 (Avg:45)
186 Sonya Moncrieff Wilbur Retired/DNE L2 7:05:00 11.9, 10.7 11.29 37, 44, 56 (Avg:50)
351 Steve Blackhurst El Raz Naarkeeta Retired/DNE L2 7:06:00 11.5, 11.0 11.27 36, 45, 50 (Avg:47)
53 Beverley Rayner-Mason Patria Azra Lame L3 0:00:00 16.6, 14.4, 13.1 - 32, 43, 44, 52 (Avg:46)
788 Sarah Jacobs Tora Lame L2 0:00:00 11.9, 10.7 - 48, 45, 53 (Avg:49)
168 Trish VanDonk Duo Park Sobar Lame L2 0:00:00 10.8, 9.7 - 34, 49, 43 (Avg:46)
220 Danny Ellerton Fiesal Lame L1 0:00:00 19.9 - 40, 46 (Avg:46)
77 Trish Reeves Destined For Dubai Lame L1 0:00:00 19.5 - 29, 45 (Avg:45)
Lightweight
795 Tracy-Lee Feltrin Oso Lexus 1 (BC) 6:54:00 19.9, 17.2, 15.4 17.39 32, 43, 46, 49 (Avg:46)
794 Elodie LeLabourier Castlebar Moonlight 2 7:21:00 16.9, 15.7, 16.3 16.33 34, 43, 41, 47 (Avg:43)
91 Kim Noble Brodie 3 10:09:00 14.9, 11.2, 10.2 11.82 39, 42, 44, 48 (Avg:44)
192 Tabitha Verspaandonk Musica Presto Retired/DNE L2 5:13:00 15.7, 14.9 15.34 38, 48, 54 (Avg:51)
792 Nicole Whitehead Candynae Retired/DNE L2 6:53:00 12.1, 11.1 11.62 38, 44, 55 (Avg:49)
11 Rohan Stanes Willandra Shadowfax Lame L2 0:00:00 11.9, 16.5 - 42, 44 (Avg:43)
Junior
34 Amanda Bengtsson Shakanda Samir 1 (BC) 8:01:00 14.7, 15.6, 14.5 14.97 32, 41, 57, 57 (Avg:51)
779 Shannon Hill Rowallan Nara 2 10:53:00 11.5, 11.0, 10.5 11.03 36, 44, 48, 42 (Avg:44)
195 Nikita Verspaandonk Splendacrest Tumbleweed 3 10:55:00 10.8, 10.0, 12.3 10.99 30, 43, 54, 56 (Avg:51)
90 Samantha Noble Springridge Bungendore Retired/DNE L2 6:15:00 14.9, 11.2 12.80 29, 40, 34 (Avg:37)
776 Jenny Berg Al Marah Cher Raid Retired/DNE L2 6:53:00 12.1, 11.1 11.62 38, 40, 50 (Avg:45)